Time;durP1;ratioP1;P1;durP2;ratioP2;P2;SDS_P1;SDS_P2;PMS_P1;PMS_P2;Temp;Humidity;BMP_temperature;BMP_pressure;BME280_temperature;BME280_humidity;BME280_pressure;Samples;Min_cycle;Max_cycle;Signal;HPM_P1;HPM_P2
2023/06/09 00:00:48;;;;;;;13.93;4.25;;;;;;;19.56;56.25;101715.88;5032330;28;21219;-47
2023/06/09 00:03:16;;;;;;;13.63;4.15;;;;;;;19.77;55.51;101704.19;5032640;28;20037;-48
2023/06/09 00:05:42;;;;;;;12.07;4.35;;;;;;;19.98;54.81;101703.06;5029860;28;20048;-45
2023/06/09 00:08:07;;;;;;;13.07;4.15;;;;;;;19.57;55.90;101704.41;5032397;28;20033;-47
2023/06/09 00:10:32;;;;;;;12.52;4.13;;;;;;;19.54;56.55;101700.91;5032070;28;20044;-45
2023/06/09 00:12:58;;;;;;;10.85;4.00;;;;;;;19.48;56.24;101701.84;5032660;28;20037;-47
2023/06/09 00:15:23;;;;;;;12.85;4.10;;;;;;;19.51;55.95;101703.59;5031553;28;20041;-44
2023/06/09 00:17:49;;;;;;;11.52;3.80;;;;;;;19.62;55.68;101701.72;5031680;28;20145;-46
2023/06/09 00:20:15;;;;;;;14.77;4.22;;;;;;;19.40;56.35;101701.88;5032003;28;20068;-47
2023/06/09 00:22:44;;;;;;;13.68;4.00;;;;;;;19.66;55.62;101695.50;5031844;28;20037;-47
2023/06/09 00:25:14;;;;;;;12.95;4.05;;;;;;;19.61;55.94;101695.56;5031739;28;20492;-47
2023/06/09 00:27:40;;;;;;;16.98;4.47;;;;;;;19.40;56.55;101699.25;5031403;28;20068;-46
2023/06/09 00:30:07;;;;;;;12.57;4.15;;;;;;;19.66;55.83;101698.13;5031903;28;20475;-51
2023/06/09 00:32:33;;;;;;;10.93;4.07;;;;;;;19.84;55.28;101698.81;5031814;28;20423;-46
2023/06/09 00:34:58;;;;;;;12.85;4.30;;;;;;;19.23;56.89;101690.59;5031348;28;20045;-49
2023/06/09 00:37:24;;;;;;;16.98;4.78;;;;;;;19.30;56.95;101689.66;5031778;28;20033;-45
2023/06/09 00:39:49;;;;;;;11.95;3.80;;;;;;;19.43;56.50;101693.06;5031381;28;20056;-50
2023/06/09 00:42:14;;;;;;;13.55;4.30;;;;;;;19.13;57.27;101678.38;5031877;28;20403;-46
2023/06/09 00:44:39;;;;;;;11.77;4.10;;;;;;;19.50;56.38;101684.22;5030870;28;20045;-45
2023/06/09 00:47:06;;;;;;;15.80;4.32;;;;;;;19.46;56.75;101678.97;5031718;28;20103;-45
2023/06/09 00:49:32;;;;;;;12.02;4.28;;;;;;;19.42;56.69;101681.59;5031237;28;20072;-45
2023/06/09 00:51:57;;;;;;;12.43;4.65;;;;;;;19.40;56.58;101686.03;5031844;28;20464;-45
2023/06/09 00:54:23;;;;;;;13.93;4.35;;;;;;;19.08;57.85;101685.47;5031285;28;20059;-45
2023/06/09 00:56:50;;;;;;;11.80;4.35;;;;;;;19.17;57.52;101681.84;5030368;28;20064;-47
2023/06/09 00:59:15;;;;;;;13.63;4.60;;;;;;;19.38;56.95;101687.84;5030316;28;20120;-45
2023/06/09 01:01:43;;;;;;;14.80;4.55;;;;;;;19.42;56.74;101686.03;5031053;28;20112;-48
2023/06/09 01:04:08;;;;;;;12.98;4.25;;;;;;;19.19;57.53;101683.59;5031126;28;20037;-45
2023/06/09 01:06:39;;;;;;;11.98;4.40;;;;;;;19.10;57.71;101683.66;5031474;28;20125;-47
2023/06/09 01:09:29;;;;;;;13.68;4.40;;;;;;;18.97;58.30;101680.25;5031476;28;20045;-45
2023/06/09 01:12:13;;;;;;;14.80;4.65;;;;;;;18.97;58.42;101687.31;5031589;28;20063;-46
2023/06/09 01:14:55;;;;;;;11.85;4.40;;;;;;;19.09;58.04;101679.28;5030419;28;20034;-45
2023/06/09 01:17:23;;;;;;;11.43;4.40;;;;;;;19.01;58.09;101674.06;5031493;28;20040;-47
2023/06/09 01:19:54;;;;;;;12.20;4.60;;;;;;;18.92;58.75;101682.06;5030625;28;20120;-45
2023/06/09 01:22:49;;;;;;;10.80;4.45;;;;;;;19.07;58.12;101675.78;5031506;28;20136;-45
2023/06/09 01:25:37;;;;;;;14.02;4.53;;;;;;;18.75;58.96;101673.41;5027925;28;20041;-44
2023/06/09 01:28:06;;;;;;;10.48;4.15;;;;;;;18.89;58.56;101686.50;5030415;28;20033;-45
2023/06/09 01:30:33;;;;;;;13.23;4.88;;;;;;;18.70;58.97;101671.69;5030525;28;20712;-45
2023/06/09 01:33:00;;;;;;;12.55;4.65;;;;;;;18.78;58.94;101677.78;5031060;28;20040;-45
2023/06/09 01:35:27;;;;;;;11.70;4.40;;;;;;;18.90;58.22;101669.78;5030305;28;20459;-45
2023/06/09 01:37:53;;;;;;;14.05;5.05;;;;;;;18.89;58.56;101668.00;5030453;28;20026;-45
2023/06/09 01:40:19;;;;;;;13.40;5.07;;;;;;;18.78;58.74;101662.81;5030799;28;20535;-47
2023/06/09 01:42:45;;;;;;;17.10;5.20;;;;;;;18.67;58.72;101663.75;5030186;28;20045;-46
2023/06/09 01:45:10;;;;;;;12.45;4.60;;;;;;;18.81;58.27;101665.44;5030147;28;20129;-45
2023/06/09 01:47:36;;;;;;;13.80;4.85;;;;;;;18.80;58.50;101663.66;5029937;28;20055;-45
2023/06/09 01:50:03;;;;;;;17.23;5.00;;;;;;;18.64;58.73;101656.75;5030631;28;20041;-45
2023/06/09 01:53:01;;;;;;;14.68;5.03;;;;;;;18.69;58.39;101654.94;5030664;28;20057;-45
2023/06/09 01:55:35;;;;;;;11.25;4.68;;;;;;;18.64;58.60;101656.75;4985742;28;20049;-44
2023/06/09 01:58:07;;;;;;;13.60;5.05;;;;;;;18.72;58.59;101651.44;5029972;28;20080;-45
2023/06/09 02:00:33;;;;;;;15.27;5.28;;;;;;;18.64;58.78;101654.13;5029993;28;20459;-44
2023/06/09 02:03:00;;;;;;;10.45;4.88;;;;;;;18.79;58.23;101648.69;5030546;28;20041;-47
2023/06/09 02:05:28;;;;;;;14.18;4.72;;;;;;;18.83;57.79;101644.28;5030038;28;20492;-46
2023/06/09 02:07:54;;;;;;;13.57;5.25;;;;;;;18.78;57.92;101652.25;5027622;28;20411;-46
2023/06/09 02:10:21;;;;;;;13.50;4.97;;;;;;;18.53;58.91;101630.41;5030560;28;20031;-45
2023/06/09 02:12:47;;;;;;;12.05;4.57;;;;;;;18.66;58.26;101635.63;5029672;28;20037;-45
2023/06/09 02:15:12;;;;;;;10.35;4.82;;;;;;;18.64;58.30;101635.63;5028191;28;20029;-52
2023/06/09 02:17:39;;;;;;;13.55;4.72;;;;;;;18.55;58.42;101639.19;5029495;28;20037;-49
2023/06/09 02:20:08;;;;;;;12.55;4.80;;;;;;;18.55;58.25;101641.84;5030039;28;20036;-48
2023/06/09 02:22:33;;;;;;;11.63;5.00;;;;;;;18.54;58.28;101639.22;5029608;28;20423;-47
2023/06/09 02:24:59;;;;;;;12.20;4.75;;;;;;;18.42;58.62;101644.56;5029469;28;20172;-46
2023/06/09 02:27:25;;;;;;;13.38;4.97;;;;;;;18.53;58.00;101646.25;5029945;28;20057;-49
2023/06/09 02:29:50;;;;;;;13.63;5.07;;;;;;;18.48;57.90;101645.38;5029281;28;20040;-44
2023/06/09 02:32:15;;;;;;;11.57;4.88;;;;;;;18.43;58.22;101648.94;5030373;28;20033;-46
2023/06/09 02:34:41;;;;;;;12.80;4.95;;;;;;;18.58;57.68;101648.88;5028947;28;20037;-47
2023/06/09 02:37:07;;;;;;;11.63;4.97;;;;;;;18.64;57.27;101644.44;5029470;28;20053;-50
2023/06/09 02:39:34;;;;;;;16.23;4.97;;;;;;;18.47;57.34;101635.72;5029448;28;20099;-45
2023/06/09 02:41:59;;;;;;;12.30;4.57;;;;;;;18.70;56.78;101637.34;5030183;28;20041;-45
2023/06/09 02:44:24;;;;;;;12.60;4.70;;;;;;;18.58;56.97;101636.56;5029513;28;20087;-44
2023/06/09 02:46:50;;;;;;;11.00;4.65;;;;;;;18.48;57.24;101634.81;5029491;28;20041;-45
2023/06/09 02:49:16;;;;;;;12.35;4.75;;;;;;;18.51;56.94;101636.56;5029639;28;20034;-44
2023/06/09 02:51:42;;;;;;;12.73;4.65;;;;;;;18.60;56.66;101640.03;5029035;28;20037;-46
2023/06/09 02:54:07;;;;;;;15.98;4.85;;;;;;;18.54;56.70;101636.56;5027664;28;20194;-46
2023/06/09 02:56:33;;;;;;;10.60;4.50;;;;;;;18.62;56.58;101640.03;5028839;28;20113;-47
2023/06/09 02:58:58;;;;;;;12.65;4.70;;;;;;;18.43;56.30;101639.25;5029245;28;20040;-46
2023/06/09 03:01:26;;;;;;;11.27;4.90;;;;;;;18.23;57.21;101639.41;5029449;28;20037;-46
2023/06/09 03:03:51;;;;;;;13.18;5.00;;;;;;;18.56;56.20;101632.16;5028612;28;20496;-45
2023/06/09 03:06:17;;;;;;;13.07;5.22;;;;;;;18.51;56.30;101626.88;5029367;28;20087;-46
2023/06/09 03:08:43;;;;;;;16.42;4.63;;;;;;;18.35;56.63;101635.81;5051839;23;20041;-45
2023/06/09 03:11:09;;;;;;;10.68;4.72;;;;;;;18.50;56.24;101630.41;5031405;28;20048;-45
2023/06/09 03:13:35;;;;;;;13.70;4.93;;;;;;;18.49;56.11;101628.66;5030891;28;20034;-44
2023/06/09 03:16:00;;;;;;;13.20;5.10;;;;;;;18.37;56.34;101625.22;5030563;28;20037;-47
2023/06/09 03:18:26;;;;;;;11.48;4.53;;;;;;;18.34;56.21;101631.41;5029219;28;20037;-45
2023/06/09 03:20:51;;;;;;;12.63;4.57;;;;;;;18.45;56.01;101626.94;5031068;28;20116;-47
2023/06/09 03:23:19;;;;;;;11.98;4.88;;;;;;;18.61;55.39;101622.44;5029531;28;20120;-46
2023/06/09 03:25:45;;;;;;;11.10;4.93;;;;;;;18.70;55.13;101629.41;5030868;28;20034;-49
2023/06/09 03:28:10;;;;;;;12.18;5.13;;;;;;;18.21;56.20;101630.59;5030213;28;20392;-45
2023/06/09 03:30:35;;;;;;;13.20;4.90;;;;;;;18.53;55.69;101634.81;5028937;28;20064;-48
2023/06/09 03:33:01;;;;;;;10.73;4.47;;;;;;;18.51;55.38;101639.22;5029584;28;20037;-45
2023/06/09 03:35:26;;;;;;;11.35;4.53;;;;;;;18.43;55.24;101628.69;5028845;28;20044;-49
2023/06/09 03:37:51;;;;;;;9.43;4.78;;;;;;;18.52;54.99;101635.69;5028843;28;20025;-47
2023/06/09 03:40:17;;;;;;;11.82;4.97;;;;;;;18.52;55.09;101627.75;5029047;28;20037;-46
2023/06/09 03:42:42;;;;;;;13.57;5.10;;;;;;;18.45;54.73;101632.22;5028881;28;20064;-48
2023/06/09 03:45:08;;;;;;;13.60;4.95;;;;;;;18.49;54.50;101630.41;5027789;28;20080;-49
2023/06/09 03:47:33;;;;;;;11.07;4.97;;;;;;;18.44;54.16;101634.84;5028849;28;20481;-44
2023/06/09 03:49:59;;;;;;;10.77;4.93;;;;;;;18.39;53.55;101642.81;5029510;28;20029;-45
2023/06/09 03:52:26;;;;;;;10.13;4.85;;;;;;;18.47;53.47;101635.72;5029245;28;20559;-45
2023/06/09 03:54:52;;;;;;;12.32;5.20;;;;;;;18.50;52.89;101625.13;5028374;28;20534;-46
2023/06/09 03:57:17;;;;;;;9.95;4.78;;;;;;;18.24;53.53;101627.06;5029381;28;20033;-47
2023/06/09 03:59:42;;;;;;;10.85;4.75;;;;;;;18.42;52.61;101623.44;5028718;28;20033;-47
2023/06/09 04:02:08;;;;;;;12.60;4.65;;;;;;;18.73;51.77;101616.16;5029570;28;20042;-47
2023/06/09 04:04:33;;;;;;;9.93;4.50;;;;;;;18.34;52.23;101614.69;5028291;28;20037;-45
2023/06/09 04:06:59;;;;;;;10.07;4.65;;;;;;;18.77;51.26;101615.28;5029006;28;20034;-50
2023/06/09 04:09:24;;;;;;;11.25;4.90;;;;;;;18.73;51.31;101619.69;5028641;28;20120;-46
2023/06/09 04:11:49;;;;;;;12.88;4.68;;;;;;;18.60;51.01;101621.56;5028607;28;20518;-45
2023/06/09 04:14:15;;;;;;;11.82;4.60;;;;;;;18.79;50.82;101618.75;5028727;28;20037;-47
2023/06/09 04:16:41;;;;;;;12.95;4.63;;;;;;;18.84;50.87;101619.63;5028465;28;20041;-53
2023/06/09 04:19:06;;;;;;;11.32;4.53;;;;;;;18.89;50.78;101625.75;5029125;28;20041;-45
2023/06/09 04:21:32;;;;;;;8.95;4.60;;;;;;;18.50;51.25;101622.50;5028691;28;20037;-48
2023/06/09 04:23:58;;;;;;;13.13;4.70;;;;;;;18.59;51.32;101624.22;5027651;28;20568;-50
2023/06/09 04:26:23;;;;;;;11.25;4.82;;;;;;;18.92;50.65;101628.34;5031204;28;20116;-43
2023/06/09 04:28:49;;;;;;;11.35;5.00;;;;;;;18.75;51.12;101631.13;5030916;28;20071;-44
2023/06/09 04:31:18;;;;;;;12.93;5.15;;;;;;;18.83;50.33;101629.31;5032887;28;20033;-45
2023/06/09 04:33:45;;;;;;;12.98;5.03;;;;;;;18.88;50.17;101631.91;5032572;28;20183;-44
2023/06/09 04:36:11;;;;;;;13.05;4.80;;;;;;;18.51;50.57;101637.44;5035306;28;20033;-45
2023/06/09 04:38:36;;;;;;;11.18;4.72;;;;;;;18.85;49.94;101634.56;5033013;28;20056;-49
2023/06/09 04:41:03;;;;;;;12.05;4.70;;;;;;;19.02;49.67;101627.38;5034808;28;20103;-45
2023/06/09 04:43:32;;;;;;;11.93;4.80;;;;;;;18.98;49.95;101633.56;5034095;28;20141;-49
2023/06/09 04:45:57;;;;;;;12.13;4.82;;;;;;;18.86;49.77;101633.69;5032197;28;20033;-45
2023/06/09 04:48:23;;;;;;;11.63;4.90;;;;;;;19.24;49.09;101628.91;5031082;28;20030;-47
2023/06/09 04:50:49;;;;;;;8.57;4.50;;;;;;;19.41;48.67;101636.66;5032005;28;20555;-46
2023/06/09 04:53:15;;;;;;;12.43;4.80;;;;;;;19.32;48.66;101640.28;5032539;28;20037;-46
2023/06/09 04:55:40;;;;;;;12.65;4.85;;;;;;;19.10;49.16;101641.38;5031011;28;20808;-48
2023/06/09 04:58:06;;;;;;;9.55;4.90;;;;;;;19.15;49.01;101636.91;5031927;28;20033;-45
2023/06/09 05:00:31;;;;;;;11.82;4.80;;;;;;;19.12;49.24;101641.38;5031632;28;20041;-49
2023/06/09 05:02:59;;;;;;;12.20;4.40;;;;;;;19.40;49.04;101637.56;5031832;28;20033;-45
2023/06/09 05:05:25;;;;;;;10.82;4.85;;;;;;;19.59;48.82;101638.25;5031608;28;20029;-46
2023/06/09 05:07:51;;;;;;;11.13;4.68;;;;;;;19.54;49.17;101645.38;5031636;28;20033;-45
2023/06/09 05:10:16;;;;;;;11.68;4.60;;;;;;;19.81;48.83;101637.13;5031901;28;20048;-45
2023/06/09 05:12:42;;;;;;;13.57;5.47;;;;;;;20.29;48.03;101638.22;5029772;28;20033;-47
2023/06/09 05:15:08;;;;;;;33.13;19.27;;;;;;;21.21;45.92;101649.16;5032326;28;20060;-50
2023/06/09 05:17:34;;;;;;;13.38;4.82;;;;;;;23.05;41.54;101634.50;5031424;28;20519;-49
2023/06/09 05:20:00;;;;;;;14.00;4.50;;;;;;;23.72;39.10;101632.69;5031509;28;20492;-44
2023/06/09 05:22:26;;;;;;;10.60;4.28;;;;;;;24.26;37.93;101635.50;5031501;28;20037;-46
2023/06/09 05:24:51;;;;;;;10.88;4.63;;;;;;;25.26;36.60;101632.16;5030472;28;20416;-48
2023/06/09 05:27:17;;;;;;;10.75;4.32;;;;;;;25.04;36.68;101637.38;5031463;28;20053;-51
2023/06/09 05:29:42;;;;;;;10.52;4.60;;;;;;;25.33;36.28;101646.16;5030779;28;20045;-47
2023/06/09 05:32:08;;;;;;;12.13;4.20;;;;;;;25.51;35.93;101649.94;5029895;28;20045;-46
2023/06/09 05:34:33;;;;;;;10.27;4.50;;;;;;;25.77;35.66;101645.44;5030655;28;20480;-48
2023/06/09 05:36:58;;;;;;;14.18;4.88;;;;;;;26.23;34.33;101643.66;5031106;28;20038;-49
2023/06/09 05:39:24;;;;;;;8.93;4.18;;;;;;;26.46;34.68;101642.78;5030998;28;20040;-46
2023/06/09 05:41:49;;;;;;;8.88;4.20;;;;;;;26.76;33.64;101646.88;5030527;28;20041;-50
2023/06/09 05:44:15;;;;;;;11.82;4.78;;;;;;;25.93;34.81;101651.06;5030377;28;20503;-48
2023/06/09 05:46:41;;;;;;;11.13;4.53;;;;;;;25.99;34.24;101653.50;5030734;28;20033;-47
2023/06/09 05:49:06;;;;;;;11.93;4.68;;;;;;;26.90;33.72;101646.31;5030845;28;20037;-46
2023/06/09 05:51:35;;;;;;;12.85;4.45;;;;;;;27.17;33.23;101649.63;5031467;28;20037;-46
2023/06/09 05:54:00;;;;;;;9.73;4.20;;;;;;;27.13;33.70;101642.69;5030820;28;20496;-44
2023/06/09 05:56:26;;;;;;;10.23;4.50;;;;;;;27.25;32.75;101639.47;5030024;28;20041;-46
2023/06/09 05:58:51;;;;;;;15.10;5.10;;;;;;;27.38;32.50;101646.91;5029995;28;20033;-46
2023/06/09 06:01:17;;;;;;;10.80;4.80;;;;;;;27.01;33.27;101639.59;5030669;28;20030;-49
2023/06/09 06:03:42;;;;;;;11.23;4.90;;;;;;;26.97;34.14;101642.47;5029819;28;20041;-49
2023/06/09 06:06:11;;;;;;;10.85;4.80;;;;;;;27.70;32.79;101637.44;5030482;28;20044;-46
2023/06/09 06:08:38;;;;;;;9.43;4.38;;;;;;;28.66;31.35;101640.91;5029867;28;20511;-46
2023/06/09 06:11:04;;;;;;;10.43;4.90;;;;;;;28.56;31.10;101634.25;5030515;28;20037;-47
2023/06/09 06:13:29;;;;;;;11.60;4.70;;;;;;;28.93;30.71;101641.34;5030377;28;20407;-47
2023/06/09 06:15:58;;;;;;;9.27;4.70;;;;;;;28.77;30.57;101637.72;5029497;28;20033;-50
2023/06/09 06:18:23;;;;;;;10.07;4.53;;;;;;;28.24;31.76;101638.50;5030491;28;20052;-46
2023/06/09 06:20:48;;;;;;;9.60;4.88;;;;;;;28.54;31.32;101641.53;5030896;28;20571;-47
2023/06/09 06:23:14;;;;;;;10.20;4.38;;;;;;;29.33;30.55;101635.72;5031941;28;20029;-46
2023/06/09 06:25:41;;;;;;;9.57;4.72;;;;;;;29.37;30.30;101633.72;5028871;28;20352;-50
2023/06/09 06:28:06;;;;;;;10.45;4.95;;;;;;;29.49;30.06;101635.75;5030140;28;20046;-46
2023/06/09 06:30:33;;;;;;;10.23;4.70;;;;;;;30.12;29.01;101650.22;5029772;28;20137;-47
2023/06/09 06:32:58;;;;;;;11.90;5.03;;;;;;;29.38;30.25;101641.72;5028505;28;20561;-47
2023/06/09 06:35:26;;;;;;;10.55;5.20;;;;;;;28.94;30.38;101646.66;5029686;28;20139;-47
2023/06/09 06:37:51;;;;;;;9.65;4.88;;;;;;;29.88;30.09;101639.94;5028250;28;20033;-47
2023/06/09 06:40:17;;;;;;;11.05;5.00;;;;;;;29.60;30.35;101635.16;5030197;28;20551;-46
2023/06/09 06:42:42;;;;;;;11.32;5.35;;;;;;;29.24;30.16;101643.34;5029712;28;20083;-47
2023/06/09 06:45:08;;;;;;;13.35;5.43;;;;;;;29.23;31.21;101644.28;5029677;28;20033;-47
2023/06/09 06:47:33;;;;;;;10.20;5.15;;;;;;;28.93;31.39;101644.03;5029328;28;20101;-45
2023/06/09 06:49:58;;;;;;;10.45;5.10;;;;;;;29.95;30.13;101644.91;5029633;28;20113;-52
2023/06/09 06:52:24;;;;;;;12.48;5.43;;;;;;;29.78;30.26;101651.16;5029932;28;20030;-46
2023/06/09 06:54:49;;;;;;;9.48;4.93;;;;;;;30.24;29.62;101643.28;5027236;28;20037;-49
2023/06/09 06:57:15;;;;;;;12.13;4.97;;;;;;;29.48;31.22;101643.88;5029853;28;20088;-52
2023/06/09 06:59:40;;;;;;;10.85;5.15;;;;;;;30.00;30.46;101637.47;5029095;28;20061;-46
2023/06/09 07:02:06;;;;;;;10.40;5.20;;;;;;;30.06;30.14;101630.88;5029811;28;20037;-49
2023/06/09 07:04:31;;;;;;;9.88;5.07;;;;;;;31.13;28.84;101639.00;5028643;28;20045;-49
2023/06/09 07:06:56;;;;;;;13.75;5.18;;;;;;;31.13;28.27;101639.00;5029391;28;20030;-47
2023/06/09 07:09:22;;;;;;;9.25;5.20;;;;;;;31.07;28.55;101634.00;5028912;28;20172;-46
2023/06/09 07:11:47;;;;;;;10.05;5.20;;;;;;;30.56;30.56;101636.06;5028658;28;20041;-45
2023/06/09 07:14:12;;;;;;;11.82;5.70;;;;;;;30.00;30.10;101629.41;5028829;28;20633;-45
2023/06/09 07:16:38;;;;;;;14.27;5.30;;;;;;;30.53;29.56;101631.75;5028721;28;20128;-49
2023/06/09 07:19:03;;;;;;;11.80;5.10;;;;;;;31.32;29.04;101637.81;5029015;28;20116;-47
2023/06/09 07:21:31;;;;;;;13.15;5.43;;;;;;;30.94;29.37;101636.50;5029554;28;20047;-50
2023/06/09 07:23:57;;;;;;;9.88;5.22;;;;;;;31.22;29.54;101635.78;5027158;28;20056;-49
2023/06/09 07:26:22;;;;;;;12.20;5.88;;;;;;;31.39;28.72;101632.91;5029182;28;20037;-50
2023/06/09 07:28:48;;;;;;;11.88;6.28;;;;;;;31.75;28.19;101630.66;5028444;28;20049;-48
2023/06/09 07:31:13;;;;;;;12.85;5.47;;;;;;;32.10;27.53;101638.31;5027903;28;20037;-50
2023/06/09 07:33:40;;;;;;;9.90;5.32;;;;;;;32.59;27.18;101636.84;5026994;28;20064;-49
2023/06/09 07:36:10;;;;;;;12.85;5.90;;;;;;;32.21;27.48;101635.78;5029045;28;20037;-46
2023/06/09 07:38:37;;;;;;;11.45;5.47;;;;;;;32.83;27.04;101641.59;5028649;28;20569;-48
2023/06/09 07:41:03;;;;;;;13.57;5.68;;;;;;;32.33;27.69;101634.13;5029334;28;20176;-45
2023/06/09 07:43:28;;;;;;;12.57;6.18;;;;;;;32.36;27.89;101628.53;5028577;28;20120;-46
2023/06/09 07:45:53;;;;;;;11.30;5.50;;;;;;;32.16;28.33;101633.41;5028229;28;20030;-50
2023/06/09 07:48:18;;;;;;;11.07;5.97;;;;;;;32.90;27.16;101634.81;5028754;28;20124;-43
2023/06/09 07:50:45;;;;;;;14.55;6.10;;;;;;;33.00;26.99;101636.75;5028786;28;20041;-46
2023/06/09 07:53:10;;;;;;;9.98;6.00;;;;;;;31.99;28.84;101639.00;5029254;28;20093;-49
2023/06/09 07:55:36;;;;;;;12.98;5.75;;;;;;;31.98;28.48;101626.47;5027996;28;20172;-47
2023/06/09 07:58:01;;;;;;;14.35;5.78;;;;;;;31.78;28.95;101638.53;5028672;28;20054;-49
2023/06/09 08:00:26;;;;;;;11.82;6.03;;;;;;;32.61;27.67;101636.75;5029037;28;20038;-46
2023/06/09 08:03:00;;;;;;;13.82;5.93;;;;;;;32.22;28.58;101629.44;5028995;28;20032;-51
2023/06/09 08:05:26;;;;;;;12.27;5.93;;;;;;;32.40;28.77;101643.56;5029255;28;20033;-46
2023/06/09 08:07:51;;;;;;;14.35;6.20;;;;;;;33.27;27.25;101635.88;5029858;28;20491;-46
2023/06/09 08:10:16;;;;;;;10.10;5.30;;;;;;;32.83;28.17;101630.78;5032647;28;20492;-49
2023/06/09 08:12:42;;;;;;;13.35;6.28;;;;;;;32.33;29.41;101634.13;5032633;28;20084;-45
2023/06/09 08:15:07;;;;;;;16.55;6.65;;;;;;;33.06;27.76;101634.66;5030818;28;20563;-45
2023/06/09 08:17:33;;;;;;;11.73;6.35;;;;;;;33.59;26.64;101622.78;5031964;28;20037;-47
2023/06/09 08:19:58;;;;;;;11.63;6.05;;;;;;;31.89;30.43;101635.16;5032515;28;20522;-48
2023/06/09 08:22:23;;;;;;;11.75;5.82;;;;;;;32.78;29.05;101635.63;5032526;28;20038;-48
2023/06/09 08:24:48;;;;;;;13.13;6.85;;;;;;;33.52;27.04;101633.19;5031212;28;20056;-49
2023/06/09 08:27:14;;;;;;;11.20;6.47;;;;;;;33.60;27.38;101625.41;5032212;28;20089;-49
2023/06/09 08:29:39;;;;;;;12.13;6.78;;;;;;;33.30;27.41;101627.56;5031847;28;20034;-51
2023/06/09 08:32:06;;;;;;;19.02;7.03;;;;;;;32.21;29.59;101631.28;5030872;28;20119;-48
2023/06/09 08:34:31;;;;;;;12.40;6.97;;;;;;;31.43;30.12;101629.91;5031008;28;20545;-51
2023/06/09 08:36:57;;;;;;;12.93;7.28;;;;;;;31.30;30.22;101628.94;5032020;28;20109;-48
2023/06/09 08:39:23;;;;;;;12.98;6.82;;;;;;;31.18;31.13;101629.69;5031932;28;20112;-49
2023/06/09 08:41:51;;;;;;;13.35;7.35;;;;;;;30.10;32.72;101627.06;5031647;28;20128;-48
2023/06/09 08:44:19;;;;;;;15.32;8.10;;;;;;;29.20;34.90;101631.03;5031517;28;20029;-46
2023/06/09 08:46:48;;;;;;;16.17;7.55;;;;;;;28.82;36.33;101635.69;5030091;28;20048;-46
2023/06/09 08:49:16;;;;;;;15.35;8.68;;;;;;;28.54;36.36;101628.13;5031528;28;20076;-46
2023/06/09 08:51:43;;;;;;;15.13;8.32;;;;;;;28.10;37.43;101632.91;5031735;28;20495;-48
2023/06/09 08:54:13;;;;;;;14.75;8.02;;;;;;;28.22;37.35;101629.69;5031787;28;20216;-50
2023/06/09 08:56:39;;;;;;;14.13;8.70;;;;;;;28.12;37.67;101631.00;5031234;28;20061;-46
2023/06/09 08:59:05;;;;;;;16.83;7.97;;;;;;;28.13;38.41;101613.97;5031903;28;20680;-48
2023/06/09 09:01:31;;;;;;;19.60;9.18;;;;;;;27.68;38.27;101627.75;5031215;28;20174;-52
2023/06/09 09:03:57;;;;;;;16.85;8.88;;;;;;;27.81;38.27;101628.94;5031261;28;20033;-49
2023/06/09 09:06:22;;;;;;;13.77;8.52;;;;;;;28.06;37.89;101626.81;5031457;28;20083;-47
2023/06/09 09:08:47;;;;;;;14.68;8.77;;;;;;;28.07;38.42;101630.34;5031228;28;20587;-48
2023/06/09 09:11:13;;;;;;;19.27;8.93;;;;;;;28.29;38.20;101627.56;5031721;28;20033;-51
2023/06/09 09:13:40;;;;;;;14.68;8.43;;;;;;;28.48;38.13;101625.75;5031077;28;20128;-47
2023/06/09 09:16:05;;;;;;;17.02;9.52;;;;;;;28.13;38.13;101628.28;5030597;28;20037;-49
2023/06/09 09:18:34;;;;;;;15.95;8.93;;;;;;;28.14;38.03;101630.03;5030652;28;20827;-47
2023/06/09 09:21:00;;;;;;;15.07;8.52;;;;;;;28.49;37.91;101625.63;5030073;28;20484;-46
2023/06/09 09:23:32;;;;;;;14.15;9.32;;;;;;;28.60;37.63;101630.50;5031331;28;20030;-51
2023/06/09 09:26:00;;;;;;;17.77;9.07;;;;;;;27.81;38.99;101620.88;5030344;28;20442;-51
2023/06/09 09:28:25;;;;;;;18.92;9.07;;;;;;;28.36;38.93;101624.50;5030721;28;20066;-48
2023/06/09 09:30:54;;;;;;;17.38;8.80;;;;;;;28.41;38.32;101621.59;5030846;28;20403;-48
2023/06/09 09:33:27;;;;;;;16.45;9.73;;;;;;;28.03;38.63;101618.06;5029669;28;20403;-48
2023/06/09 09:35:59;;;;;;;15.02;9.45;;;;;;;28.27;38.99;101622.28;5030230;28;20025;-53
2023/06/09 09:38:29;;;;;;;18.45;9.68;;;;;;;28.37;38.96;101620.00;5030766;28;20439;-49
2023/06/09 09:40:57;;;;;;;17.15;9.50;;;;;;;28.52;39.33;101622.81;5030489;28;20033;-50
2023/06/09 09:43:27;;;;;;;20.05;10.07;;;;;;;28.72;38.37;101618.28;5030995;28;20040;-47
2023/06/09 09:45:54;;;;;;;21.60;9.95;;;;;;;28.39;38.40;101621.69;5028763;28;20040;-54
2023/06/09 09:48:22;;;;;;;14.98;9.70;;;;;;;28.41;39.00;101617.13;5030548;28;20403;-50
2023/06/09 09:50:51;;;;;;;17.10;8.90;;;;;;;28.92;38.65;101613.66;5031088;28;20193;-48
2023/06/09 09:53:16;;;;;;;14.25;9.23;;;;;;;28.88;37.41;101616.56;5032049;28;20045;-46
2023/06/09 09:55:43;;;;;;;17.30;9.68;;;;;;;28.90;38.14;101623.63;5031099;28;20037;-48
2023/06/09 09:58:11;;;;;;;16.15;10.20;;;;;;;28.82;37.79;101607.03;5031869;28;20115;-47
2023/06/09 10:00:38;;;;;;;16.65;9.30;;;;;;;28.86;37.17;101605.03;5031550;28;20061;-49
2023/06/09 10:03:30;;;;;;;16.45;9.65;;;;;;;29.04;38.47;101606.78;5031822;28;20545;-49
2023/06/09 10:06:00;;;;;;;17.45;9.20;;;;;;;29.18;37.46;101608.75;5029059;28;20037;-51
2023/06/09 10:08:30;;;;;;;16.45;9.75;;;;;;;28.94;37.64;101597.47;5030909;28;20041;-45
2023/06/09 10:10:57;;;;;;;16.38;9.65;;;;;;;29.28;36.77;101593.88;5030287;28;20044;-51
2023/06/09 10:13:26;;;;;;;15.35;9.90;;;;;;;29.09;37.36;101598.50;5028931;28;20093;-47
2023/06/09 10:15:52;;;;;;;19.20;10.02;;;;;;;29.14;37.97;101604.50;5029550;28;20483;-48
2023/06/09 10:18:20;;;;;;;14.70;9.77;;;;;;;29.32;37.14;101600.84;5030221;28;20030;-48
2023/06/09 10:20:45;;;;;;;17.23;10.50;;;;;;;29.08;37.66;101600.31;5029960;28;20468;-47
2023/06/09 10:23:11;;;;;;;14.98;9.75;;;;;;;29.29;37.51;101596.47;5030695;28;20132;-52
2023/06/09 10:25:37;;;;;;;17.75;10.90;;;;;;;29.04;37.62;101604.09;5029184;28;20523;-49
2023/06/09 10:28:03;;;;;;;17.23;10.73;;;;;;;29.18;37.78;101609.63;5029646;28;20034;-45
2023/06/09 10:30:29;;;;;;;18.08;10.60;;;;;;;29.37;37.61;101598.81;5029853;28;20040;-47
2023/06/09 10:33:00;;;;;;;14.52;10.38;;;;;;;29.29;37.39;101595.59;5028040;28;20044;-45
2023/06/09 10:35:28;;;;;;;15.48;10.13;;;;;;;29.38;37.20;101590.66;5029362;28;20029;-50
2023/06/09 10:37:56;;;;;;;18.73;11.57;;;;;;;29.46;37.10;101581.34;5028448;28;20068;-52
2023/06/09 10:41:11;;;;;;;19.13;11.27;;;;;;;29.36;37.55;101587.19;5029645;28;20034;-52
2023/06/09 10:43:48;;;;;;;20.08;10.55;;;;;;;29.47;36.87;101588.41;4987200;28;20049;-47
2023/06/09 10:46:14;;;;;;;17.00;11.65;;;;;;;29.38;37.42;101581.75;5028275;28;20057;-44
2023/06/09 10:48:49;;;;;;;18.50;10.57;;;;;;;29.41;36.95;101585.13;5029031;28;20523;-46
2023/06/09 10:51:38;;;;;;;17.52;10.38;;;;;;;29.71;36.93;101587.94;5029673;28;20120;-46
2023/06/09 10:54:12;;;;;;;19.85;11.95;;;;;;;29.66;36.31;101581.09;5027612;28;20063;-48
2023/06/09 10:56:42;;;;;;;17.00;10.80;;;;;;;29.57;37.42;101574.41;5029056;28;20128;-45
2023/06/09 10:59:25;;;;;;;17.20;10.68;;;;;;;29.60;36.87;101566.19;5029365;28;20044;-46
2023/06/09 11:02:02;;;;;;;19.15;9.98;;;;;;;29.55;37.44;101570.94;5029026;28;20084;-50
2023/06/09 11:04:46;;;;;;;19.77;12.23;;;;;;;29.91;35.83;101573.44;5028964;28;20409;-47
2023/06/09 11:07:14;;;;;;;;;;;;;;;30.01;37.04;101576.50;5028784;28;20037;-50
2023/06/09 11:10:00;;;;;;;15.15;9.88;;;;;;;29.75;37.12;101561.78;5028882;28;19921;-45
2023/06/09 11:12:38;;;;;;;17.55;9.93;;;;;;;29.79;37.28;101566.91;5022148;28;20037;-48
2023/06/09 11:15:05;;;;;;;17.48;9.63;;;;;;;30.10;36.59;101554.44;5028259;28;20037;-48
2023/06/09 11:17:37;;;;;;;21.08;10.18;;;;;;;29.81;36.97;101550.69;5029152;28;20040;-46